sensor_id;sensor_type;location;lat;lon;timestamp;P1;durP1;ratioP1;P2;durP2;ratioP2
15748;SDS011;7976;52.526;13.326;2022-09-09T00:02:15;11.18;;;5.82;;
15748;SDS011;7976;52.526;13.326;2022-09-09T00:04:48;12.75;;;6.90;;
15748;SDS011;7976;52.526;13.326;2022-09-09T00:07:30;11.88;;;6.28;;
15748;SDS011;7976;52.526;13.326;2022-09-09T00:10:13;11.88;;;6.38;;
15748;SDS011;7976;52.526;13.326;2022-09-09T00:12:52;10.88;;;5.70;;
15748;SDS011;7976;52.526;13.326;2022-09-09T00:15:34;10.20;;;5.30;;
15748;SDS011;7976;52.526;13.326;2022-09-09T00:18:11;10.98;;;5.47;;
15748;SDS011;7976;52.526;13.326;2022-09-09T00:20:52;11.38;;;5.78;;
15748;SDS011;7976;52.526;13.326;2022-09-09T00:23:30;11.13;;;5.78;;
15748;SDS011;7976;52.526;13.326;2022-09-09T00:26:06;12.30;;;6.32;;
15748;SDS011;7976;52.526;13.326;2022-09-09T00:28:45;12.60;;;6.53;;
15748;SDS011;7976;52.526;13.326;2022-09-09T00:31:26;13.02;;;6.63;;
15748;SDS011;7976;52.526;13.326;2022-09-09T00:33:56;16.30;;;7.95;;
15748;SDS011;7976;52.526;13.326;2022-09-09T00:36:33;13.15;;;6.60;;
15748;SDS011;7976;52.526;13.326;2022-09-09T00:39:03;14.02;;;7.47;;
15748;SDS011;7976;52.526;13.326;2022-09-09T00:41:35;15.25;;;7.60;;
15748;SDS011;7976;52.526;13.326;2022-09-09T00:44:25;17.02;;;7.95;;
15748;SDS011;7976;52.526;13.326;2022-09-09T00:47:04;14.43;;;7.35;;
15748;SDS011;7976;52.526;13.326;2022-09-09T00:49:56;15.40;;;7.95;;
15748;SDS011;7976;52.526;13.326;2022-09-09T00:52:40;14.85;;;7.18;;
15748;SDS011;7976;52.526;13.326;2022-09-09T00:55:25;13.07;;;6.85;;
15748;SDS011;7976;52.526;13.326;2022-09-09T00:58:06;14.27;;;7.13;;
15748;SDS011;7976;52.526;13.326;2022-09-09T01:00:35;12.40;;;6.65;;
15748;SDS011;7976;52.526;13.326;2022-09-09T01:03:22;12.40;;;6.32;;
15748;SDS011;7976;52.526;13.326;2022-09-09T01:06:05;13.75;;;7.15;;
15748;SDS011;7976;52.526;13.326;2022-09-09T01:08:47;12.32;;;6.43;;
15748;SDS011;7976;52.526;13.326;2022-09-09T01:11:37;12.32;;;6.38;;
15748;SDS011;7976;52.526;13.326;2022-09-09T01:14:24;14.07;;;8.05;;
15748;SDS011;7976;52.526;13.326;2022-09-09T01:17:08;13.63;;;7.10;;
15748;SDS011;7976;52.526;13.326;2022-09-09T01:19:52;11.90;;;6.65;;
15748;SDS011;7976;52.526;13.326;2022-09-09T01:22:35;14.88;;;7.75;;
15748;SDS011;7976;52.526;13.326;2022-09-09T01:25:21;12.48;;;6.50;;
15748;SDS011;7976;52.526;13.326;2022-09-09T01:28:07;12.07;;;6.43;;
15748;SDS011;7976;52.526;13.326;2022-09-09T01:30:40;11.30;;;5.95;;
15748;SDS011;7976;52.526;13.326;2022-09-09T01:33:12;13.35;;;6.38;;
15748;SDS011;7976;52.526;13.326;2022-09-09T01:35:45;11.10;;;6.30;;
15748;SDS011;7976;52.526;13.326;2022-09-09T01:38:21;11.98;;;6.53;;
15748;SDS011;7976;52.526;13.326;2022-09-09T01:40:52;11.75;;;6.57;;
15748;SDS011;7976;52.526;13.326;2022-09-09T01:43:26;13.05;;;6.05;;
15748;SDS011;7976;52.526;13.326;2022-09-09T01:45:55;13.85;;;6.63;;
15748;SDS011;7976;52.526;13.326;2022-09-09T01:48:28;13.18;;;6.55;;
15748;SDS011;7976;52.526;13.326;2022-09-09T01:51:07;21.65;;;10.20;;
15748;SDS011;7976;52.526;13.326;2022-09-09T01:53:35;22.50;;;10.73;;
15748;SDS011;7976;52.526;13.326;2022-09-09T01:56:07;22.25;;;10.23;;
15748;SDS011;7976;52.526;13.326;2022-09-09T01:58:57;14.15;;;7.05;;
15748;SDS011;7976;52.526;13.326;2022-09-09T02:01:41;14.27;;;7.32;;
15748;SDS011;7976;52.526;13.326;2022-09-09T02:04:27;12.93;;;7.13;;
15748;SDS011;7976;52.526;13.326;2022-09-09T02:07:15;13.23;;;7.25;;
15748;SDS011;7976;52.526;13.326;2022-09-09T02:10:09;11.65;;;6.20;;
15748;SDS011;7976;52.526;13.326;2022-09-09T02:12:53;13.65;;;6.40;;
15748;SDS011;7976;52.526;13.326;2022-09-09T02:15:31;13.35;;;6.65;;
15748;SDS011;7976;52.526;13.326;2022-09-09T02:18:06;11.70;;;6.22;;
15748;SDS011;7976;52.526;13.326;2022-09-09T02:20:39;14.73;;;6.72;;
15748;SDS011;7976;52.526;13.326;2022-09-09T02:23:08;13.25;;;6.53;;
15748;SDS011;7976;52.526;13.326;2022-09-09T02:25:38;11.90;;;6.15;;
15748;SDS011;7976;52.526;13.326;2022-09-09T02:28:17;12.18;;;6.05;;
15748;SDS011;7976;52.526;13.326;2022-09-09T02:30:50;11.90;;;6.28;;
15748;SDS011;7976;52.526;13.326;2022-09-09T02:33:21;12.10;;;6.05;;
15748;SDS011;7976;52.526;13.326;2022-09-09T02:35:53;16.50;;;6.10;;
15748;SDS011;7976;52.526;13.326;2022-09-09T02:38:29;12.65;;;6.05;;
15748;SDS011;7976;52.526;13.326;2022-09-09T02:41:08;11.25;;;5.90;;
15748;SDS011;7976;52.526;13.326;2022-09-09T02:43:35;11.25;;;5.63;;
15748;SDS011;7976;52.526;13.326;2022-09-09T02:46:11;13.38;;;6.65;;
15748;SDS011;7976;52.526;13.326;2022-09-09T02:48:59;10.75;;;5.75;;
15748;SDS011;7976;52.526;13.326;2022-09-09T02:51:39;12.45;;;5.78;;
15748;SDS011;7976;52.526;13.326;2022-09-09T02:54:21;11.75;;;5.82;;
15748;SDS011;7976;52.526;13.326;2022-09-09T02:56:56;11.50;;;5.63;;
15748;SDS011;7976;52.526;13.326;2022-09-09T02:59:36;12.70;;;6.20;;
15748;SDS011;7976;52.526;13.326;2022-09-09T03:02:05;12.38;;;5.88;;
15748;SDS011;7976;52.526;13.326;2022-09-09T03:04:35;12.50;;;6.45;;
15748;SDS011;7976;52.526;13.326;2022-09-09T03:07:03;11.95;;;6.25;;
15748;SDS011;7976;52.526;13.326;2022-09-09T03:09:30;12.07;;;6.30;;
15748;SDS011;7976;52.526;13.326;2022-09-09T03:11:58;13.10;;;5.80;;
15748;SDS011;7976;52.526;13.326;2022-09-09T03:14:26;12.27;;;5.70;;
15748;SDS011;7976;52.526;13.326;2022-09-09T03:16:54;11.77;;;5.85;;
15748;SDS011;7976;52.526;13.326;2022-09-09T03:19:25;12.10;;;6.13;;
15748;SDS011;7976;52.526;13.326;2022-09-09T03:21:52;10.90;;;5.90;;
15748;SDS011;7976;52.526;13.326;2022-09-09T03:24:20;21.30;;;6.90;;
15748;SDS011;7976;52.526;13.326;2022-09-09T03:26:47;11.38;;;5.72;;
15748;SDS011;7976;52.526;13.326;2022-09-09T03:29:16;12.00;;;5.55;;
15748;SDS011;7976;52.526;13.326;2022-09-09T03:31:44;11.52;;;5.60;;
15748;SDS011;7976;52.526;13.326;2022-09-09T03:34:11;13.50;;;5.90;;
15748;SDS011;7976;52.526;13.326;2022-09-09T03:36:40;11.75;;;6.40;;
15748;SDS011;7976;52.526;13.326;2022-09-09T03:39:07;13.05;;;6.10;;
15748;SDS011;7976;52.526;13.326;2022-09-09T03:41:35;11.93;;;5.68;;
15748;SDS011;7976;52.526;13.326;2022-09-09T03:44:03;13.35;;;5.30;;
15748;SDS011;7976;52.526;13.326;2022-09-09T03:46:34;11.25;;;5.15;;
15748;SDS011;7976;52.526;13.326;2022-09-09T03:49:03;12.57;;;5.60;;
15748;SDS011;7976;52.526;13.326;2022-09-09T03:51:31;10.90;;;5.70;;
15748;SDS011;7976;52.526;13.326;2022-09-09T03:54:03;14.38;;;6.75;;
15748;SDS011;7976;52.526;13.326;2022-09-09T03:56:33;11.60;;;5.78;;
15748;SDS011;7976;52.526;13.326;2022-09-09T03:59:01;12.05;;;6.13;;
15748;SDS011;7976;52.526;13.326;2022-09-09T04:01:28;12.48;;;6.03;;
15748;SDS011;7976;52.526;13.326;2022-09-09T04:03:55;11.15;;;5.28;;
15748;SDS011;7976;52.526;13.326;2022-09-09T04:06:23;11.68;;;5.90;;
15748;SDS011;7976;52.526;13.326;2022-09-09T04:08:51;11.30;;;5.45;;
15748;SDS011;7976;52.526;13.326;2022-09-09T04:11:20;12.60;;;5.35;;
15748;SDS011;7976;52.526;13.326;2022-09-09T04:13:50;10.52;;;5.10;;
15748;SDS011;7976;52.526;13.326;2022-09-09T04:16:17;11.45;;;4.88;;
15748;SDS011;7976;52.526;13.326;2022-09-09T04:18:45;10.57;;;4.97;;
15748;SDS011;7976;52.526;13.326;2022-09-09T04:21:14;10.60;;;4.82;;
15748;SDS011;7976;52.526;13.326;2022-09-09T04:23:42;13.40;;;5.25;;
15748;SDS011;7976;52.526;13.326;2022-09-09T04:26:09;10.57;;;4.90;;
15748;SDS011;7976;52.526;13.326;2022-09-09T04:28:38;10.00;;;4.88;;
15748;SDS011;7976;52.526;13.326;2022-09-09T04:31:13;12.43;;;4.78;;
15748;SDS011;7976;52.526;13.326;2022-09-09T04:33:44;11.38;;;4.97;;
15748;SDS011;7976;52.526;13.326;2022-09-09T04:36:11;10.48;;;4.88;;
15748;SDS011;7976;52.526;13.326;2022-09-09T04:38:39;9.45;;;4.00;;
15748;SDS011;7976;52.526;13.326;2022-09-09T04:41:06;10.60;;;4.78;;
15748;SDS011;7976;52.526;13.326;2022-09-09T04:43:36;10.23;;;4.65;;
15748;SDS011;7976;52.526;13.326;2022-09-09T04:46:06;8.90;;;4.18;;
15748;SDS011;7976;52.526;13.326;2022-09-09T04:48:33;9.15;;;4.28;;
15748;SDS011;7976;52.526;13.326;2022-09-09T04:51:03;13.43;;;4.90;;
15748;SDS011;7976;52.526;13.326;2022-09-09T04:53:33;9.75;;;4.50;;
15748;SDS011;7976;52.526;13.326;2022-09-09T04:56:01;11.27;;;4.63;;
15748;SDS011;7976;52.526;13.326;2022-09-09T04:58:31;11.27;;;5.03;;
15748;SDS011;7976;52.526;13.326;2022-09-09T05:01:04;13.27;;;4.90;;
15748;SDS011;7976;52.526;13.326;2022-09-09T05:03:34;10.40;;;4.43;;
15748;SDS011;7976;52.526;13.326;2022-09-09T05:06:06;11.52;;;4.35;;
15748;SDS011;7976;52.526;13.326;2022-09-09T05:08:36;11.55;;;4.63;;
15748;SDS011;7976;52.526;13.326;2022-09-09T05:11:04;11.15;;;4.80;;
15748;SDS011;7976;52.526;13.326;2022-09-09T05:13:39;11.90;;;4.88;;
15748;SDS011;7976;52.526;13.326;2022-09-09T05:16:08;9.68;;;4.13;;
15748;SDS011;7976;52.526;13.326;2022-09-09T05:18:36;9.15;;;4.10;;
15748;SDS011;7976;52.526;13.326;2022-09-09T05:21:03;9.65;;;4.53;;
15748;SDS011;7976;52.526;13.326;2022-09-09T05:23:30;10.40;;;4.30;;
15748;SDS011;7976;52.526;13.326;2022-09-09T05:25:59;10.55;;;4.22;;
15748;SDS011;7976;52.526;13.326;2022-09-09T05:28:27;13.05;;;4.18;;
15748;SDS011;7976;52.526;13.326;2022-09-09T05:30:59;10.38;;;4.53;;
15748;SDS011;7976;52.526;13.326;2022-09-09T05:33:31;9.57;;;3.97;;
15748;SDS011;7976;52.526;13.326;2022-09-09T05:35:59;9.82;;;3.90;;
15748;SDS011;7976;52.526;13.326;2022-09-09T05:38:29;10.82;;;4.20;;
15748;SDS011;7976;52.526;13.326;2022-09-09T05:40:57;13.02;;;4.50;;
15748;SDS011;7976;52.526;13.326;2022-09-09T05:43:25;10.85;;;3.95;;
15748;SDS011;7976;52.526;13.326;2022-09-09T05:46:00;11.93;;;4.47;;
15748;SDS011;7976;52.526;13.326;2022-09-09T05:48:32;14.40;;;4.45;;
15748;SDS011;7976;52.526;13.326;2022-09-09T05:51:02;9.45;;;4.13;;
15748;SDS011;7976;52.526;13.326;2022-09-09T05:53:31;11.05;;;4.90;;
15748;SDS011;7976;52.526;13.326;2022-09-09T05:56:00;11.23;;;4.97;;
15748;SDS011;7976;52.526;13.326;2022-09-09T05:58:30;10.10;;;4.57;;
15748;SDS011;7976;52.526;13.326;2022-09-09T06:01:00;12.38;;;4.18;;
15748;SDS011;7976;52.526;13.326;2022-09-09T06:03:32;11.85;;;3.95;;
15748;SDS011;7976;52.526;13.326;2022-09-09T06:06:02;11.18;;;4.10;;
15748;SDS011;7976;52.526;13.326;2022-09-09T06:08:32;11.73;;;3.92;;
15748;SDS011;7976;52.526;13.326;2022-09-09T06:11:03;8.68;;;3.47;;
15748;SDS011;7976;52.526;13.326;2022-09-09T06:13:33;8.73;;;3.88;;
15748;SDS011;7976;52.526;13.326;2022-09-09T06:16:02;10.45;;;3.83;;
15748;SDS011;7976;52.526;13.326;2022-09-09T06:18:29;10.38;;;3.83;;
15748;SDS011;7976;52.526;13.326;2022-09-09T06:20:58;11.50;;;3.90;;
15748;SDS011;7976;52.526;13.326;2022-09-09T06:23:29;9.57;;;3.92;;
15748;SDS011;7976;52.526;13.326;2022-09-09T06:26:00;11.02;;;3.63;;
15748;SDS011;7976;52.526;13.326;2022-09-09T06:28:33;10.00;;;3.97;;
15748;SDS011;7976;52.526;13.326;2022-09-09T06:31:02;11.68;;;4.32;;
15748;SDS011;7976;52.526;13.326;2022-09-09T06:33:32;9.20;;;3.50;;
15748;SDS011;7976;52.526;13.326;2022-09-09T06:36:02;9.43;;;3.67;;
15748;SDS011;7976;52.526;13.326;2022-09-09T06:38:30;10.80;;;3.42;;
15748;SDS011;7976;52.526;13.326;2022-09-09T06:40:59;8.77;;;3.42;;
15748;SDS011;7976;52.526;13.326;2022-09-09T06:43:27;7.95;;;2.90;;
15748;SDS011;7976;52.526;13.326;2022-09-09T06:45:57;9.73;;;3.38;;
15748;SDS011;7976;52.526;13.326;2022-09-09T06:48:26;9.60;;;3.50;;
15748;SDS011;7976;52.526;13.326;2022-09-09T06:51:02;10.73;;;3.80;;
15748;SDS011;7976;52.526;13.326;2022-09-09T06:53:31;9.25;;;3.38;;
15748;SDS011;7976;52.526;13.326;2022-09-09T06:56:00;9.70;;;3.72;;
15748;SDS011;7976;52.526;13.326;2022-09-09T06:58:28;11.70;;;3.63;;
15748;SDS011;7976;52.526;13.326;2022-09-09T07:01:03;9.07;;;3.53;;
15748;SDS011;7976;52.526;13.326;2022-09-09T07:03:33;7.97;;;3.10;;
15748;SDS011;7976;52.526;13.326;2022-09-09T07:06:01;8.88;;;2.80;;
15748;SDS011;7976;52.526;13.326;2022-09-09T07:08:29;11.18;;;3.20;;
15748;SDS011;7976;52.526;13.326;2022-09-09T07:11:01;9.15;;;2.95;;
15748;SDS011;7976;52.526;13.326;2022-09-09T07:13:33;8.70;;;3.30;;
15748;SDS011;7976;52.526;13.326;2022-09-09T07:16:03;8.45;;;2.92;;
15748;SDS011;7976;52.526;13.326;2022-09-09T07:18:32;7.60;;;2.92;;
15748;SDS011;7976;52.526;13.326;2022-09-09T07:21:00;10.80;;;2.90;;
15748;SDS011;7976;52.526;13.326;2022-09-09T07:23:29;9.35;;;2.75;;
15748;SDS011;7976;52.526;13.326;2022-09-09T07:25:56;10.10;;;2.80;;
15748;SDS011;7976;52.526;13.326;2022-09-09T07:28:25;8.75;;;2.75;;
15748;SDS011;7976;52.526;13.326;2022-09-09T07:30:54;7.53;;;2.42;;
15748;SDS011;7976;52.526;13.326;2022-09-09T07:33:22;11.20;;;2.40;;
15748;SDS011;7976;52.526;13.326;2022-09-09T07:35:50;6.90;;;2.50;;
15748;SDS011;7976;52.526;13.326;2022-09-09T07:38:19;7.47;;;2.38;;
15748;SDS011;7976;52.526;13.326;2022-09-09T07:40:49;6.28;;;2.20;;
15748;SDS011;7976;52.526;13.326;2022-09-09T07:43:16;6.97;;;2.42;;
15748;SDS011;7976;52.526;13.326;2022-09-09T07:45:44;8.52;;;2.50;;
15748;SDS011;7976;52.526;13.326;2022-09-09T07:48:11;5.63;;;2.30;;
15748;SDS011;7976;52.526;13.326;2022-09-09T07:50:38;4.28;;;1.90;;
15748;SDS011;7976;52.526;13.326;2022-09-09T07:53:04;6.95;;;2.10;;
15748;SDS011;7976;52.526;13.326;2022-09-09T07:55:33;5.00;;;1.90;;
15748;SDS011;7976;52.526;13.326;2022-09-09T07:58:00;6.50;;;2.50;;
15748;SDS011;7976;52.526;13.326;2022-09-09T08:00:26;6.07;;;2.22;;
15748;SDS011;7976;52.526;13.326;2022-09-09T08:02:56;9.15;;;2.88;;
15748;SDS011;7976;52.526;13.326;2022-09-09T08:05:22;6.88;;;1.90;;
15748;SDS011;7976;52.526;13.326;2022-09-09T08:07:50;6.68;;;2.10;;
15748;SDS011;7976;52.526;13.326;2022-09-09T08:10:17;6.00;;;2.38;;
15748;SDS011;7976;52.526;13.326;2022-09-09T08:12:47;6.70;;;2.25;;
15748;SDS011;7976;52.526;13.326;2022-09-09T08:15:14;7.07;;;2.28;;
15748;SDS011;7976;52.526;13.326;2022-09-09T08:17:42;10.55;;;2.38;;
15748;SDS011;7976;52.526;13.326;2022-09-09T08:20:09;8.60;;;2.00;;
15748;SDS011;7976;52.526;13.326;2022-09-09T08:22:37;6.53;;;2.03;;
15748;SDS011;7976;52.526;13.326;2022-09-09T08:25:04;5.03;;;1.83;;
15748;SDS011;7976;52.526;13.326;2022-09-09T08:27:35;6.80;;;2.53;;
15748;SDS011;7976;52.526;13.326;2022-09-09T08:30:04;10.07;;;2.95;;
15748;SDS011;7976;52.526;13.326;2022-09-09T08:32:33;7.22;;;2.00;;
15748;SDS011;7976;52.526;13.326;2022-09-09T08:35:01;8.38;;;2.42;;
15748;SDS011;7976;52.526;13.326;2022-09-09T08:37:28;6.55;;;2.10;;
15748;SDS011;7976;52.526;13.326;2022-09-09T08:39:57;8.35;;;2.28;;
15748;SDS011;7976;52.526;13.326;2022-09-09T08:42:27;9.73;;;2.28;;
15748;SDS011;7976;52.526;13.326;2022-09-09T08:45:14;8.35;;;1.90;;
15748;SDS011;7976;52.526;13.326;2022-09-09T08:48:03;7.47;;;2.33;;
15748;SDS011;7976;52.526;13.326;2022-09-09T08:50:52;5.75;;;1.80;;
15748;SDS011;7976;52.526;13.326;2022-09-09T08:53:27;8.98;;;2.25;;
15748;SDS011;7976;52.526;13.326;2022-09-09T08:56:08;6.43;;;2.28;;
15748;SDS011;7976;52.526;13.326;2022-09-09T08:58:53;5.80;;;1.85;;
15748;SDS011;7976;52.526;13.326;2022-09-09T09:01:53;7.55;;;2.22;;
15748;SDS011;7976;52.526;13.326;2022-09-09T09:04:38;8.13;;;2.08;;
15748;SDS011;7976;52.526;13.326;2022-09-09T09:07:28;7.45;;;1.85;;
15748;SDS011;7976;52.526;13.326;2022-09-09T09:10:20;6.60;;;1.80;;
15748;SDS011;7976;52.526;13.326;2022-09-09T09:13:06;5.15;;;1.75;;
15748;SDS011;7976;52.526;13.326;2022-09-09T09:15:41;5.13;;;1.80;;
15748;SDS011;7976;52.526;13.326;2022-09-09T09:18:14;7.55;;;1.90;;
15748;SDS011;7976;52.526;13.326;2022-09-09T09:20:46;7.25;;;2.40;;
15748;SDS011;7976;52.526;13.326;2022-09-09T09:23:26;10.02;;;2.50;;
15748;SDS011;7976;52.526;13.326;2022-09-09T09:26:06;7.78;;;2.25;;
15748;SDS011;7976;52.526;13.326;2022-09-09T09:28:37;7.82;;;2.25;;
15748;SDS011;7976;52.526;13.326;2022-09-09T09:31:12;5.18;;;1.92;;
15748;SDS011;7976;52.526;13.326;2022-09-09T09:33:45;8.07;;;2.50;;
15748;SDS011;7976;52.526;13.326;2022-09-09T09:36:17;7.70;;;2.10;;
15748;SDS011;7976;52.526;13.326;2022-09-09T09:38:54;7.60;;;1.80;;
15748;SDS011;7976;52.526;13.326;2022-09-09T09:41:30;6.65;;;1.92;;
15748;SDS011;7976;52.526;13.326;2022-09-09T09:44:00;6.60;;;1.83;;
15748;SDS011;7976;52.526;13.326;2022-09-09T09:46:30;11.52;;;2.05;;
15748;SDS011;7976;52.526;13.326;2022-09-09T09:49:12;6.88;;;2.13;;
15748;SDS011;7976;52.526;13.326;2022-09-09T09:51:39;8.68;;;2.30;;
15748;SDS011;7976;52.526;13.326;2022-09-09T09:54:13;6.93;;;1.95;;
15748;SDS011;7976;52.526;13.326;2022-09-09T09:57:07;9.05;;;2.20;;
15748;SDS011;7976;52.526;13.326;2022-09-09T09:59:36;7.65;;;2.00;;
15748;SDS011;7976;52.526;13.326;2022-09-09T10:02:18;8.52;;;2.28;;
15748;SDS011;7976;52.526;13.326;2022-09-09T10:05:02;8.00;;;2.40;;
15748;SDS011;7976;52.526;13.326;2022-09-09T10:07:33;10.50;;;2.45;;
15748;SDS011;7976;52.526;13.326;2022-09-09T10:10:02;15.25;;;2.75;;
15748;SDS011;7976;52.526;13.326;2022-09-09T10:12:35;22.88;;;4.63;;
15748;SDS011;7976;52.526;13.326;2022-09-09T10:15:22;18.20;;;3.65;;
15748;SDS011;7976;52.526;13.326;2022-09-09T10:18:04;10.73;;;2.70;;
15748;SDS011;7976;52.526;13.326;2022-09-09T10:20:51;9.90;;;2.28;;
15748;SDS011;7976;52.526;13.326;2022-09-09T10:23:35;9.23;;;2.58;;
15748;SDS011;7976;52.526;13.326;2022-09-09T10:26:27;5.55;;;1.83;;
15748;SDS011;7976;52.526;13.326;2022-09-09T10:29:16;6.13;;;1.83;;
15748;SDS011;7976;52.526;13.326;2022-09-09T10:32:07;10.02;;;2.30;;
15748;SDS011;7976;52.526;13.326;2022-09-09T10:35:12;8.00;;;2.47;;
15748;SDS011;7976;52.526;13.326;2022-09-09T10:37:56;8.65;;;2.20;;
15748;SDS011;7976;52.526;13.326;2022-09-09T10:43:56;7.30;;;2.22;;
15748;SDS011;7976;52.526;13.326;2022-09-09T10:53:17;9.32;;;2.28;;
15748;SDS011;7976;52.526;13.326;2022-09-09T10:55:59;8.00;;;2.25;;
15748;SDS011;7976;52.526;13.326;2022-09-09T10:58:35;6.78;;;2.10;;
15748;SDS011;7976;52.526;13.326;2022-09-09T11:01:09;8.35;;;2.30;;
15748;SDS011;7976;52.526;13.326;2022-09-09T11:03:45;7.20;;;2.03;;
15748;SDS011;7976;52.526;13.326;2022-09-09T11:06:23;6.68;;;1.92;;
15748;SDS011;7976;52.526;13.326;2022-09-09T11:08:58;11.25;;;2.78;;
15748;SDS011;7976;52.526;13.326;2022-09-09T11:11:32;7.35;;;1.90;;
15748;SDS011;7976;52.526;13.326;2022-09-09T11:14:05;5.90;;;2.00;;
15748;SDS011;7976;52.526;13.326;2022-09-09T11:16:42;6.28;;;2.00;;
15748;SDS011;7976;52.526;13.326;2022-09-09T11:19:16;7.90;;;2.78;;
15748;SDS011;7976;52.526;13.326;2022-09-09T11:21:52;8.40;;;2.63;;
15748;SDS011;7976;52.526;13.326;2022-09-09T11:24:25;9.10;;;1.90;;
15748;SDS011;7976;52.526;13.326;2022-09-09T11:27:00;7.45;;;2.40;;
15748;SDS011;7976;52.526;13.326;2022-09-09T11:33:07;6.63;;;2.15;;
15748;SDS011;7976;52.526;13.326;2022-09-09T11:36:06;9.40;;;2.47;;
15748;SDS011;7976;52.526;13.326;2022-09-09T11:39:11;5.22;;;1.60;;
15748;SDS011;7976;52.526;13.326;2022-09-09T11:42:13;5.38;;;1.40;;
15748;SDS011;7976;52.526;13.326;2022-09-09T11:44:44;5.93;;;1.70;;
15748;SDS011;7976;52.526;13.326;2022-09-09T11:47:22;5.15;;;1.55;;
15748;SDS011;7976;52.526;13.326;2022-09-09T11:49:55;6.40;;;2.00;;
15748;SDS011;7976;52.526;13.326;2022-09-09T11:52:37;6.45;;;2.00;;
15748;SDS011;7976;52.526;13.326;2022-09-09T11:55:24;6.55;;;1.70;;
15748;SDS011;7976;52.526;13.326;2022-09-09T11:57:57;6.88;;;1.88;;
15748;SDS011;7976;52.526;13.326;2022-09-09T12:00:32;6.85;;;1.90;;
15748;SDS011;7976;52.526;13.326;2022-09-09T12:03:03;5.47;;;1.70;;
15748;SDS011;7976;52.526;13.326;2022-09-09T12:05:37;6.30;;;1.90;;
15748;SDS011;7976;52.526;13.326;2022-09-09T12:08:08;10.13;;;1.90;;
15748;SDS011;7976;52.526;13.326;2022-09-09T12:10:52;6.68;;;1.92;;
15748;SDS011;7976;52.526;13.326;2022-09-09T12:13:22;7.90;;;1.80;;
15748;SDS011;7976;52.526;13.326;2022-09-09T12:15:52;41.30;;;17.33;;
15748;SDS011;7976;52.526;13.326;2022-09-09T12:18:21;7.15;;;2.08;;
15748;SDS011;7976;52.526;13.326;2022-09-09T12:20:52;6.07;;;1.70;;
15748;SDS011;7976;52.526;13.326;2022-09-09T12:23:35;8.38;;;1.98;;
15748;SDS011;7976;52.526;13.326;2022-09-09T12:26:19;5.82;;;2.08;;
15748;SDS011;7976;52.526;13.326;2022-09-09T12:28:59;18.67;;;6.47;;
15748;SDS011;7976;52.526;13.326;2022-09-09T12:31:41;6.45;;;1.73;;
15748;SDS011;7976;52.526;13.326;2022-09-09T12:34:17;8.57;;;2.20;;
15748;SDS011;7976;52.526;13.326;2022-09-09T12:36:57;7.00;;;2.03;;
15748;SDS011;7976;52.526;13.326;2022-09-09T12:39:33;6.80;;;1.85;;
15748;SDS011;7976;52.526;13.326;2022-09-09T12:42:15;5.90;;;1.63;;
15748;SDS011;7976;52.526;13.326;2022-09-09T12:44:51;6.28;;;2.00;;
15748;SDS011;7976;52.526;13.326;2022-09-09T12:47:20;11.40;;;2.00;;
15748;SDS011;7976;52.526;13.326;2022-09-09T12:49:59;5.18;;;1.70;;
15748;SDS011;7976;52.526;13.326;2022-09-09T12:52:27;8.93;;;1.98;;
15748;SDS011;7976;52.526;13.326;2022-09-09T12:55:01;6.45;;;1.83;;
15748;SDS011;7976;52.526;13.326;2022-09-09T12:57:33;6.72;;;1.80;;
15748;SDS011;7976;52.526;13.326;2022-09-09T13:00:04;8.57;;;1.65;;
15748;SDS011;7976;52.526;13.326;2022-09-09T13:02:45;9.77;;;1.75;;
15748;SDS011;7976;52.526;13.326;2022-09-09T13:05:19;6.78;;;2.00;;
15748;SDS011;7976;52.526;13.326;2022-09-09T13:07:49;9.73;;;2.75;;
15748;SDS011;7976;52.526;13.326;2022-09-09T13:10:20;9.15;;;3.30;;
15748;SDS011;7976;52.526;13.326;2022-09-09T13:12:54;10.82;;;2.80;;
15748;SDS011;7976;52.526;13.326;2022-09-09T13:15:23;7.32;;;2.30;;
15748;SDS011;7976;52.526;13.326;2022-09-09T13:17:55;9.88;;;4.10;;
15748;SDS011;7976;52.526;13.326;2022-09-09T13:20:26;9.00;;;4.20;;
15748;SDS011;7976;52.526;13.326;2022-09-09T13:22:54;10.10;;;3.30;;
15748;SDS011;7976;52.526;13.326;2022-09-09T13:25:23;10.23;;;2.50;;
15748;SDS011;7976;52.526;13.326;2022-09-09T13:27:59;8.38;;;2.40;;
15748;SDS011;7976;52.526;13.326;2022-09-09T13:30:29;7.95;;;2.17;;
15748;SDS011;7976;52.526;13.326;2022-09-09T13:35:49;13.98;;;7.40;;
15748;SDS011;7976;52.526;13.326;2022-09-09T13:38:21;11.40;;;4.43;;
15748;SDS011;7976;52.526;13.326;2022-09-09T13:40:53;10.73;;;4.18;;
15748;SDS011;7976;52.526;13.326;2022-09-09T13:43:25;9.95;;;3.53;;
15748;SDS011;7976;52.526;13.326;2022-09-09T13:45:54;15.38;;;5.40;;
15748;SDS011;7976;52.526;13.326;2022-09-09T13:48:24;13.13;;;6.68;;
15748;SDS011;7976;52.526;13.326;2022-09-09T13:50:56;12.88;;;4.72;;
15748;SDS011;7976;52.526;13.326;2022-09-09T13:53:25;10.60;;;4.05;;
15748;SDS011;7976;52.526;13.326;2022-09-09T13:55:52;12.77;;;5.85;;
15748;SDS011;7976;52.526;13.326;2022-09-09T13:58:19;12.88;;;5.20;;
15748;SDS011;7976;52.526;13.326;2022-09-09T14:00:49;12.48;;;5.32;;
15748;SDS011;7976;52.526;13.326;2022-09-09T14:03:15;14.18;;;4.05;;
15748;SDS011;7976;52.526;13.326;2022-09-09T14:05:43;8.70;;;3.08;;
15748;SDS011;7976;52.526;13.326;2022-09-09T14:08:12;9.55;;;3.40;;
15748;SDS011;7976;52.526;13.326;2022-09-09T14:10:50;11.57;;;3.17;;
15748;SDS011;7976;52.526;13.326;2022-09-09T14:13:17;10.18;;;3.42;;
15748;SDS011;7976;52.526;13.326;2022-09-09T14:15:47;20.20;;;6.53;;
15748;SDS011;7976;52.526;13.326;2022-09-09T14:18:15;10.20;;;3.55;;
15748;SDS011;7976;52.526;13.326;2022-09-09T14:20:43;14.13;;;4.20;;
15748;SDS011;7976;52.526;13.326;2022-09-09T14:23:11;10.75;;;3.67;;
15748;SDS011;7976;52.526;13.326;2022-09-09T14:25:39;8.93;;;3.03;;
15748;SDS011;7976;52.526;13.326;2022-09-09T14:28:08;9.55;;;2.95;;
15748;SDS011;7976;52.526;13.326;2022-09-09T14:30:38;10.63;;;3.25;;
15748;SDS011;7976;52.526;13.326;2022-09-09T14:33:08;8.00;;;2.40;;
15748;SDS011;7976;52.526;13.326;2022-09-09T14:35:37;12.23;;;3.03;;
15748;SDS011;7976;52.526;13.326;2022-09-09T14:38:06;11.20;;;4.38;;
15748;SDS011;7976;52.526;13.326;2022-09-09T14:40:33;19.45;;;7.55;;
15748;SDS011;7976;52.526;13.326;2022-09-09T14:43:01;13.32;;;5.00;;
15748;SDS011;7976;52.526;13.326;2022-09-09T14:45:29;8.10;;;3.15;;
15748;SDS011;7976;52.526;13.326;2022-09-09T14:47:56;12.65;;;4.38;;
15748;SDS011;7976;52.526;13.326;2022-09-09T14:50:25;13.20;;;4.80;;
15748;SDS011;7976;52.526;13.326;2022-09-09T14:52:52;13.40;;;4.00;;
15748;SDS011;7976;52.526;13.326;2022-09-09T14:55:19;11.63;;;4.60;;
15748;SDS011;7976;52.526;13.326;2022-09-09T14:57:46;13.23;;;4.57;;
15748;SDS011;7976;52.526;13.326;2022-09-09T15:00:13;11.55;;;3.60;;
15748;SDS011;7976;52.526;13.326;2022-09-09T15:02:40;9.52;;;2.92;;
15748;SDS011;7976;52.526;13.326;2022-09-09T15:05:08;8.35;;;2.83;;
15748;SDS011;7976;52.526;13.326;2022-09-09T15:07:37;8.98;;;2.85;;
15748;SDS011;7976;52.526;13.326;2022-09-09T15:10:04;9.55;;;3.13;;
15748;SDS011;7976;52.526;13.326;2022-09-09T15:12:31;8.32;;;2.60;;
15748;SDS011;7976;52.526;13.326;2022-09-09T15:15:00;8.77;;;2.30;;
15748;SDS011;7976;52.526;13.326;2022-09-09T15:17:28;7.47;;;2.20;;
15748;SDS011;7976;52.526;13.326;2022-09-09T15:19:55;8.88;;;2.28;;
15748;SDS011;7976;52.526;13.326;2022-09-09T15:22:22;9.70;;;2.97;;
15748;SDS011;7976;52.526;13.326;2022-09-09T15:24:50;10.60;;;2.75;;
15748;SDS011;7976;52.526;13.326;2022-09-09T15:27:17;8.68;;;2.55;;
15748;SDS011;7976;52.526;13.326;2022-09-09T15:29:44;7.50;;;2.17;;
15748;SDS011;7976;52.526;13.326;2022-09-09T15:32:12;8.85;;;2.58;;
15748;SDS011;7976;52.526;13.326;2022-09-09T15:34:38;8.68;;;2.13;;